createdAt,value
2022-08-26T00:01:53.817Z,95.08
2022-08-26T00:04:23.189Z,95.47
2022-08-26T00:06:51.348Z,95.40
2022-08-26T00:09:18.085Z,94.80
2022-08-26T00:11:46.073Z,94.73
2022-08-26T00:14:14.177Z,94.62
2022-08-26T00:16:47.287Z,95.15
2022-08-26T00:19:21.162Z,95.26
2022-08-26T00:21:49.858Z,95.30
2022-08-26T00:24:18.510Z,95.48
2022-08-26T00:26:45.961Z,95.89
2022-08-26T00:29:14.051Z,96.01
2022-08-26T00:31:43.032Z,95.86
2022-08-26T00:34:12.831Z,95.09
2022-08-26T00:36:40.924Z,94.65
2022-08-26T00:39:09.195Z,94.72
2022-08-26T00:41:39.492Z,94.33
2022-08-26T00:44:07.173Z,94.07
2022-08-26T00:46:37.121Z,94.24
2022-08-26T00:49:17.155Z,94.30
2022-08-26T00:51:49.634Z,94.22
2022-08-26T00:54:17.392Z,94.53
2022-08-26T00:56:53.752Z,95.04
2022-08-26T00:59:22.433Z,95.27
2022-08-26T01:01:50.219Z,95.38
2022-08-26T01:04:19.912Z,95.51
2022-08-26T01:06:49.811Z,95.38
2022-08-26T01:09:18.192Z,95.33
2022-08-26T01:11:45.652Z,95.86
2022-08-26T01:14:13.532Z,95.47
2022-08-26T01:16:42.240Z,95.11
2022-08-26T01:19:41.113Z,95.16
2022-08-26T01:22:12.250Z,95.30
2022-08-26T01:24:39.191Z,95.31
2022-08-26T01:27:10.070Z,95.32
2022-08-26T01:29:38.804Z,95.41
2022-08-26T01:32:08.077Z,94.93
2022-08-26T01:34:38.770Z,94.65
2022-08-26T01:37:22.697Z,94.82
2022-08-26T01:39:52.086Z,94.45
2022-08-26T01:42:21.092Z,94.34
2022-08-26T01:44:57.940Z,94.23
2022-08-26T01:47:26.223Z,93.87
2022-08-26T01:49:55.134Z,93.86
2022-08-26T01:52:28.386Z,93.88
2022-08-26T01:54:56.065Z,93.87
2022-08-26T01:57:24.152Z,94.05
2022-08-26T01:59:53.340Z,94.21
2022-08-26T02:02:20.393Z,94.13
2022-08-26T02:04:51.352Z,93.45
2022-08-26T02:07:19.595Z,93.28
2022-08-26T02:09:48.491Z,92.80
2022-08-26T02:12:17.278Z,92.69
2022-08-26T02:14:49.750Z,92.92
2022-08-26T02:17:18.961Z,93.06
2022-08-26T02:19:50.012Z,93.17
2022-08-26T02:22:20.538Z,93.31
2022-08-26T02:24:56.965Z,93.20
2022-08-26T02:27:32.117Z,93.25
2022-08-26T02:30:15.087Z,93.18
2022-08-26T02:32:44.629Z,93.34
2022-08-26T02:35:14.130Z,93.51
2022-08-26T02:37:47.971Z,93.86
2022-08-26T02:40:21.451Z,93.96
2022-08-26T02:42:49.272Z,94.18
2022-08-26T02:45:23.061Z,94.07
2022-08-26T02:47:51.556Z,94.18
2022-08-26T02:50:20.226Z,94.10
2022-08-26T02:52:48.463Z,93.82
2022-08-26T02:55:16.145Z,93.68
2022-08-26T02:57:43.191Z,93.76
2022-08-26T03:00:12.640Z,93.66
2022-08-26T03:02:40.872Z,93.72
2022-08-26T03:05:08.254Z,93.76
2022-08-26T03:07:34.753Z,93.86
2022-08-26T03:10:01.712Z,93.88
2022-08-26T03:12:35.408Z,94.05
2022-08-26T03:15:02.002Z,93.96
2022-08-26T03:17:29.810Z,94.11
2022-08-26T03:19:57.193Z,94.07
2022-08-26T03:22:25.646Z,94.16
2022-08-26T03:24:54.136Z,94.23
2022-08-26T03:27:21.082Z,94.14
2022-08-26T03:30:06.752Z,94.00
2022-08-26T03:32:33.702Z,94.09
2022-08-26T03:35:01.265Z,94.07
2022-08-26T03:37:28.009Z,93.95
2022-08-26T03:39:54.880Z,93.94
2022-08-26T03:42:21.900Z,93.89
2022-08-26T03:44:48.934Z,93.95
2022-08-26T03:47:15.460Z,94.05
2022-08-26T03:49:42.611Z,94.15
2022-08-26T03:52:10.272Z,93.97
2022-08-26T03:54:37.033Z,94.25
2022-08-26T03:57:04.370Z,94.34
2022-08-26T03:59:31.931Z,94.01
2022-08-26T04:01:58.504Z,94.19
2022-08-26T04:04:25.708Z,94.10
2022-08-26T04:06:58.188Z,93.71
2022-08-26T04:09:25.972Z,93.83
2022-08-26T04:11:54.636Z,93.90
2022-08-26T04:14:23.718Z,93.88
2022-08-26T04:16:52.031Z,93.91
2022-08-26T04:19:20.414Z,94.06
2022-08-26T04:21:48.250Z,94.38
2022-08-26T04:24:16.557Z,94.12
2022-08-26T04:26:44.713Z,94.13
2022-08-26T04:29:15.569Z,94.33
2022-08-26T04:31:42.116Z,94.16
2022-08-26T04:34:09.554Z,94.01
2022-08-26T04:36:38.434Z,94.03
2022-08-26T04:39:05.624Z,94.22
2022-08-26T04:41:33.173Z,94.39
2022-08-26T04:44:01.455Z,94.15
2022-08-26T04:46:28.617Z,94.22
2022-08-26T04:48:55.298Z,94.29
2022-08-26T04:51:27.052Z,94.49
2022-08-26T04:53:58.837Z,94.45
2022-08-26T04:56:32.512Z,94.61
2022-08-26T04:59:00.994Z,94.65
2022-08-26T05:01:28.785Z,94.81
2022-08-26T05:03:56.139Z,94.65
2022-08-26T05:06:22.755Z,94.54
2022-08-26T05:08:49.843Z,94.67
2022-08-26T05:11:16.456Z,94.72
2022-08-26T05:13:43.175Z,94.85
2022-08-26T05:16:13.520Z,94.48
2022-08-26T05:18:43.465Z,94.48
2022-08-26T05:21:41.713Z,94.43
2022-08-26T05:24:11.733Z,94.43
2022-08-26T05:26:38.476Z,94.24
2022-08-26T05:29:06.210Z,94.46
2022-08-26T05:31:34.243Z,94.47
2022-08-26T05:34:03.816Z,94.52
2022-08-26T05:36:33.029Z,94.51
2022-08-26T05:39:01.593Z,94.26
2022-08-26T05:41:34.425Z,94.31
2022-08-26T05:44:06.073Z,94.14
2022-08-26T05:46:33.876Z,94.05
2022-08-26T05:49:01.556Z,94.04
2022-08-26T05:51:30.434Z,94.24
2022-08-26T05:53:58.361Z,94.01
2022-08-26T05:56:27.470Z,93.92
2022-08-26T05:58:55.462Z,93.70
2022-08-26T06:01:27.659Z,93.62
2022-08-26T06:04:01.789Z,93.27
2022-08-26T06:06:32.313Z,93.13
2022-08-26T06:09:00.558Z,93.23
2022-08-26T06:11:29.135Z,93.44
2022-08-26T06:14:04.003Z,92.76
2022-08-26T06:16:34.486Z,92.96
2022-08-26T06:19:03.336Z,93.01
2022-08-26T06:21:33.126Z,92.32
2022-08-26T06:24:20.709Z,92.16
2022-08-26T06:26:56.803Z,92.26
2022-08-26T06:29:25.757Z,92.10
2022-08-26T06:31:54.254Z,92.31
2022-08-26T06:34:29.898Z,92.26
2022-08-26T06:36:59.826Z,91.76
2022-08-26T06:39:28.316Z,91.93
2022-08-26T06:41:58.819Z,91.71
2022-08-26T06:44:26.695Z,91.73
2022-08-26T06:46:54.171Z,91.72
2022-08-26T06:49:26.919Z,91.52
2022-08-26T06:51:57.657Z,91.43
2022-08-26T06:54:24.909Z,91.52
2022-08-26T06:56:52.174Z,91.43
2022-08-26T06:59:18.998Z,90.93
2022-08-26T07:01:48.338Z,91.02
2022-08-26T07:04:22.085Z,90.95
2022-08-26T07:06:52.607Z,91.01
2022-08-26T07:09:21.716Z,90.81
2022-08-26T07:11:49.280Z,90.87
2022-08-26T07:14:17.667Z,90.81
2022-08-26T07:16:51.375Z,90.93
2022-08-26T07:19:28.529Z,90.36
2022-08-26T07:22:01.603Z,89.96
2022-08-26T07:24:29.275Z,89.60
2022-08-26T07:27:05.491Z,89.67
2022-08-26T07:29:34.326Z,89.34
2022-08-26T07:32:01.638Z,88.97
2022-08-26T07:34:28.856Z,88.79
2022-08-26T07:36:56.761Z,88.21
2022-08-26T07:39:26.336Z,88.15
2022-08-26T07:41:53.781Z,87.74
2022-08-26T07:44:20.957Z,87.80
2022-08-26T07:46:52.237Z,87.32
2022-08-26T07:49:22.165Z,87.22
2022-08-26T07:51:50.405Z,86.83
2022-08-26T07:54:17.433Z,86.67
2022-08-26T07:56:47.136Z,86.37
2022-08-26T07:59:15.291Z,86.28
2022-08-26T08:01:44.737Z,85.73
2022-08-26T08:04:17.055Z,85.59
2022-08-26T08:06:45.457Z,86.13
2022-08-26T08:09:14.426Z,86.11
2022-08-26T08:11:44.508Z,85.92
2022-08-26T08:14:11.976Z,85.84
2022-08-26T08:16:45.899Z,85.82
2022-08-26T08:19:14.845Z,85.59
2022-08-26T08:21:42.918Z,85.98
2022-08-26T08:24:10.471Z,85.71
2022-08-26T08:26:37.408Z,85.73
2022-08-26T08:29:04.674Z,85.35
2022-08-26T08:34:21.584Z,82.38
2022-08-26T08:36:50.220Z,81.86
2022-08-26T08:39:20.316Z,80.88
2022-08-26T08:42:05.874Z,81.03
2022-08-26T08:44:33.456Z,80.50
2022-08-26T08:47:06.091Z,79.47
2022-08-26T08:49:33.567Z,78.65
2022-08-26T08:52:12.820Z,78.78
2022-08-26T08:54:39.439Z,78.32
2022-08-26T08:57:17.696Z,77.93
2022-08-26T08:59:54.753Z,77.77
2022-08-26T09:02:34.400Z,77.85
2022-08-26T09:05:25.216Z,77.40
2022-08-26T09:08:08.191Z,77.51
2022-08-26T09:10:51.285Z,77.10
2022-08-26T09:13:25.058Z,76.55
2022-08-26T09:16:21.441Z,76.22
2022-08-26T09:19:20.615Z,76.75
2022-08-26T09:21:57.890Z,75.83
2022-08-26T09:24:28.881Z,75.51
2022-08-26T09:26:57.799Z,75.83
2022-08-26T09:29:31.594Z,75.78
2022-08-26T09:32:23.956Z,75.82
2022-08-26T09:34:59.492Z,74.31
2022-08-26T09:40:27.095Z,72.93
2022-08-26T09:43:11.414Z,72.68
2022-08-26T09:45:40.878Z,72.80
2022-08-26T09:48:25.910Z,72.78
2022-08-26T09:50:59.388Z,71.40
2022-08-26T09:53:36.608Z,69.98
2022-08-26T09:56:33.513Z,68.70
2022-08-26T09:59:01.272Z,69.07
2022-08-26T10:01:42.710Z,67.49
2022-08-26T10:04:21.818Z,67.59
2022-08-26T10:06:59.454Z,67.65
2022-08-26T10:09:28.123Z,67.77
2022-08-26T10:11:59.814Z,67.11
2022-08-26T10:14:36.775Z,67.03
2022-08-26T10:17:30.931Z,65.91
2022-08-26T10:20:27.334Z,65.87
2022-08-26T10:23:15.521Z,65.35
2022-08-26T10:26:00.479Z,65.48
2022-08-26T10:28:31.684Z,65.56
2022-08-26T10:31:03.874Z,65.85
2022-08-26T10:33:31.122Z,65.66
2022-08-26T10:36:00.942Z,64.50
2022-08-26T10:38:39.535Z,64.41
2022-08-26T10:41:11.489Z,63.21
2022-08-26T10:43:44.078Z,63.28
2022-08-26T10:46:18.067Z,62.11
2022-08-26T10:48:56.413Z,59.99
2022-08-26T10:51:35.362Z,59.79
2022-08-26T10:54:29.712Z,59.10
2022-08-26T10:57:13.145Z,58.25
2022-08-26T11:00:30.016Z,58.18
2022-08-26T11:03:29.309Z,56.80
2022-08-26T11:06:18.375Z,56.35
2022-08-26T11:08:51.096Z,56.34
2022-08-26T11:11:40.378Z,57.00
2022-08-26T11:14:31.416Z,55.57
2022-08-26T11:17:11.052Z,54.57
2022-08-26T11:19:59.440Z,53.08
2022-08-26T11:22:35.458Z,53.39
2022-08-26T11:25:09.513Z,52.62
2022-08-26T11:27:38.298Z,51.62
2022-08-26T11:30:30.974Z,50.45
2022-08-26T11:32:59.349Z,50.96
2022-08-26T11:35:26.390Z,51.89
2022-08-26T11:38:04.490Z,50.27
2022-08-26T11:40:38.251Z,49.40
2022-08-26T11:43:13.422Z,49.67
2022-08-26T11:45:48.838Z,48.48
2022-08-26T11:48:23.933Z,47.25
2022-08-26T11:50:56.604Z,47.82
2022-08-26T11:53:26.096Z,48.17
2022-08-26T11:55:54.977Z,47.47
2022-08-26T11:58:24.929Z,46.36
2022-08-26T12:00:59.307Z,46.33
2022-08-26T12:03:47.513Z,46.64
2022-08-26T12:06:43.398Z,46.76
2022-08-26T12:09:20.636Z,45.77
2022-08-26T12:11:47.373Z,46.17
2022-08-26T12:14:24.073Z,46.35
2022-08-26T12:16:51.444Z,46.04
2022-08-26T12:19:32.873Z,46.28
2022-08-26T12:22:23.441Z,46.73
2022-08-26T12:25:00.169Z,45.91
2022-08-26T12:27:39.862Z,45.41
2022-08-26T12:30:12.471Z,44.50
2022-08-26T12:32:57.964Z,45.25
2022-08-26T12:35:26.823Z,45.67
2022-08-26T12:37:54.564Z,44.61
2022-08-26T12:40:40.857Z,45.62
2022-08-26T12:43:09.624Z,45.88
2022-08-26T12:45:36.584Z,46.14
2022-08-26T12:48:10.409Z,45.69
2022-08-26T12:50:41.034Z,45.64
2022-08-26T12:53:10.654Z,43.61
2022-08-26T12:55:49.091Z,43.47
2022-08-26T12:58:15.823Z,43.04
2022-08-26T13:00:48.504Z,43.62
2022-08-26T13:03:32.317Z,43.42
2022-08-26T13:06:23.164Z,44.29
2022-08-26T13:08:51.628Z,45.18
2022-08-26T13:11:25.819Z,44.34
2022-08-26T13:14:00.151Z,44.26
2022-08-26T13:16:29.232Z,44.98
2022-08-26T13:19:06.411Z,44.72
2022-08-26T13:21:49.117Z,43.97
2022-08-26T13:24:36.476Z,44.54
2022-08-26T13:27:30.323Z,44.56
2022-08-26T13:29:57.696Z,44.42
2022-08-26T13:32:27.566Z,44.86
2022-08-26T13:34:58.556Z,45.02
2022-08-26T13:37:34.548Z,45.59
2022-08-26T13:40:05.174Z,45.41
2022-08-26T13:42:32.008Z,44.79
2022-08-26T13:44:59.636Z,44.46
2022-08-26T13:47:27.768Z,45.14
2022-08-26T13:49:55.960Z,45.07
2022-08-26T13:52:30.151Z,45.20
2022-08-26T13:55:00.592Z,45.19
2022-08-26T13:57:30.262Z,45.90
2022-08-26T13:59:59.220Z,45.35
2022-08-26T14:02:27.258Z,45.80
2022-08-26T14:04:55.660Z,46.29
2022-08-26T14:07:22.815Z,45.78
2022-08-26T14:09:49.802Z,46.00
2022-08-26T14:12:16.412Z,46.05
2022-08-26T14:14:43.575Z,46.43
2022-08-26T14:17:14.666Z,46.40
2022-08-26T14:19:45.637Z,45.99
2022-08-26T14:22:14.534Z,45.27
2022-08-26T14:24:41.275Z,45.03
2022-08-26T14:27:07.893Z,44.81
2022-08-26T14:29:34.958Z,44.96
2022-08-26T14:32:14.060Z,45.39
2022-08-26T14:34:46.554Z,45.40
2022-08-26T14:37:15.405Z,45.45
2022-08-26T14:39:42.194Z,44.90
2022-08-26T14:42:09.954Z,44.85
2022-08-26T14:44:37.517Z,43.82
2022-08-26T14:47:06.616Z,43.47
2022-08-26T14:49:33.539Z,43.25
2022-08-26T14:52:00.614Z,42.64
2022-08-26T14:54:28.995Z,42.44
2022-08-26T14:56:58.300Z,42.65
2022-08-26T14:59:49.718Z,42.19
2022-08-26T15:02:32.435Z,41.21
2022-08-26T15:05:02.270Z,41.36
2022-08-26T15:07:29.076Z,41.24
2022-08-26T15:09:55.934Z,40.97
2022-08-26T15:12:22.753Z,41.31
2022-08-26T15:14:49.995Z,41.37
2022-08-26T15:17:17.363Z,41.74
2022-08-26T15:19:45.014Z,42.17
2022-08-26T15:22:11.540Z,42.75
2022-08-26T15:24:38.194Z,42.60
2022-08-26T15:27:05.347Z,42.11
2022-08-26T15:29:32.861Z,41.39
2022-08-26T15:32:04.354Z,42.33
2022-08-26T15:34:31.925Z,42.10
2022-08-26T15:36:58.553Z,42.59
2022-08-26T15:39:25.194Z,42.94
2022-08-26T15:41:52.534Z,42.72
2022-08-26T15:44:19.914Z,42.87
2022-08-26T15:46:48.626Z,42.93
2022-08-26T15:49:17.807Z,43.49
2022-08-26T15:51:47.558Z,43.46
2022-08-26T15:54:16.466Z,43.47
2022-08-26T15:56:43.703Z,43.53
2022-08-26T15:59:11.924Z,43.96
2022-08-26T16:01:40.860Z,44.16
2022-08-26T16:04:07.634Z,44.47
2022-08-26T16:06:37.352Z,44.78
2022-08-26T16:09:05.267Z,44.94
2022-08-26T16:11:32.054Z,45.13
2022-08-26T16:13:58.909Z,44.90
2022-08-26T16:16:27.142Z,44.77
2022-08-26T16:18:55.182Z,44.53
2022-08-26T16:21:25.054Z,44.90
2022-08-26T16:23:52.114Z,45.26
2022-08-26T16:26:22.134Z,45.03
2022-08-26T16:28:48.754Z,45.69
2022-08-26T16:31:15.799Z,45.56
2022-08-26T16:33:42.739Z,45.29
2022-08-26T16:36:11.036Z,45.66
2022-08-26T16:38:40.321Z,45.68
2022-08-26T16:41:08.103Z,46.04
2022-08-26T16:43:36.154Z,46.39
2022-08-26T16:46:06.219Z,46.80
2022-08-26T16:48:34.381Z,47.03
2022-08-26T16:51:01.794Z,46.78
2022-08-26T16:53:29.976Z,46.99
2022-08-26T16:55:57.017Z,47.06
2022-08-26T16:58:24.476Z,47.26
2022-08-26T17:00:51.133Z,48.43
2022-08-26T17:03:18.817Z,49.16
2022-08-26T17:05:46.654Z,49.33
2022-08-26T17:08:24.212Z,49.43
2022-08-26T17:10:59.913Z,49.54
2022-08-26T17:13:31.642Z,49.94
2022-08-26T17:16:02.016Z,50.75
2022-08-26T17:18:31.274Z,51.22
2022-08-26T17:21:02.043Z,51.89
2022-08-26T17:23:29.464Z,52.27
2022-08-26T17:25:57.455Z,52.00
2022-08-26T17:28:24.294Z,51.96
2022-08-26T17:30:51.473Z,51.72
2022-08-26T17:33:21.448Z,51.93
2022-08-26T17:35:51.281Z,52.38
2022-08-26T17:38:18.399Z,52.50
2022-08-26T17:40:45.146Z,53.01
2022-08-26T17:43:12.627Z,53.51
2022-08-26T17:45:42.122Z,53.90
2022-08-26T17:48:10.340Z,53.63
2022-08-26T17:50:38.975Z,53.87
2022-08-26T17:53:05.665Z,54.37
2022-08-26T17:55:33.460Z,54.59
2022-08-26T17:58:00.302Z,55.05
2022-08-26T18:00:30.627Z,55.72
2022-08-26T18:02:58.211Z,55.95
2022-08-26T18:05:25.539Z,57.22
2022-08-26T18:07:53.510Z,57.47
2022-08-26T18:10:21.898Z,57.65
2022-08-26T18:12:50.069Z,57.93
2022-08-26T18:15:17.533Z,58.46
2022-08-26T18:17:44.994Z,58.71
2022-08-26T18:20:15.208Z,58.56
2022-08-26T18:22:43.275Z,58.36
2022-08-26T18:25:11.501Z,58.43
2022-08-26T18:27:38.415Z,58.49
2022-08-26T18:30:16.423Z,59.25
2022-08-26T18:32:44.058Z,59.67
2022-08-26T18:35:11.824Z,59.62
2022-08-26T18:37:38.758Z,59.93
2022-08-26T18:40:07.770Z,59.74
2022-08-26T18:42:35.754Z,59.89
2022-08-26T18:45:04.273Z,60.10
2022-08-26T18:47:32.416Z,60.42
2022-08-26T18:50:01.201Z,61.00
2022-08-26T18:52:28.534Z,60.99
2022-08-26T18:54:55.335Z,61.35
2022-08-26T18:57:22.234Z,61.19
2022-08-26T18:59:49.379Z,61.28
2022-08-26T19:02:16.583Z,61.88
2022-08-26T19:04:43.898Z,62.13
2022-08-26T19:07:11.012Z,61.70
2022-08-26T19:09:37.756Z,61.89
2022-08-26T19:12:05.327Z,62.02
2022-08-26T19:14:33.382Z,62.42
2022-08-26T19:17:01.648Z,62.63
2022-08-26T19:19:28.815Z,62.99
2022-08-26T19:21:56.972Z,63.01
2022-08-26T19:24:27.383Z,63.08
2022-08-26T19:26:58.291Z,63.13
2022-08-26T19:29:29.040Z,62.74
2022-08-26T19:31:56.646Z,62.92
2022-08-26T19:34:24.514Z,62.66
2022-08-26T19:36:53.577Z,62.70
2022-08-26T19:39:21.362Z,62.76
2022-08-26T19:41:49.541Z,63.26
2022-08-26T19:44:38.269Z,63.37
2022-08-26T19:47:07.769Z,63.69
2022-08-26T19:49:35.356Z,63.73
2022-08-26T19:52:03.561Z,64.36
2022-08-26T19:54:31.295Z,64.59
2022-08-26T19:56:58.775Z,65.16
2022-08-26T19:59:26.439Z,65.45
2022-08-26T20:02:01.003Z,65.51
2022-08-26T20:04:30.858Z,66.24
2022-08-26T20:07:00.603Z,66.46
2022-08-26T20:09:33.159Z,66.25
2022-08-26T20:12:01.527Z,65.95
2022-08-26T20:14:30.083Z,66.15
2022-08-26T20:16:57.628Z,66.24
2022-08-26T20:19:43.975Z,66.09
2022-08-26T20:22:12.334Z,67.30
2022-08-26T20:24:40.000Z,67.94
2022-08-26T20:27:08.138Z,68.47
2022-08-26T20:29:36.557Z,68.81
2022-08-26T20:32:08.585Z,68.72
2022-08-26T20:34:37.907Z,69.44
2022-08-26T20:37:05.295Z,69.68
2022-08-26T20:39:32.762Z,69.52
2022-08-26T20:41:59.795Z,69.62
2022-08-26T20:44:27.875Z,70.59
2022-08-26T20:46:56.715Z,70.92
2022-08-26T20:49:23.974Z,71.24
2022-08-26T20:51:52.247Z,71.76
2022-08-26T20:54:25.029Z,72.18
2022-08-26T20:56:55.475Z,72.98
2022-08-26T20:59:23.034Z,73.18
2022-08-26T21:01:50.612Z,73.06
2022-08-26T21:04:26.195Z,73.38
2022-08-26T21:06:54.214Z,73.81
2022-08-26T21:09:23.314Z,73.65
2022-08-26T21:11:50.875Z,73.86
2022-08-26T21:14:19.036Z,74.01
2022-08-26T21:16:47.922Z,74.45
2022-08-26T21:19:18.065Z,74.73
2022-08-26T21:21:46.741Z,74.89
2022-08-26T21:24:13.896Z,75.19
2022-08-26T21:26:41.027Z,75.52
2022-08-26T21:29:09.776Z,76.07
2022-08-26T21:31:39.146Z,76.18
2022-08-26T21:34:09.232Z,76.56
2022-08-26T21:36:36.214Z,76.41
2022-08-26T21:39:05.982Z,76.39
2022-08-26T21:41:36.154Z,76.51
2022-08-26T21:44:03.394Z,76.23
2022-08-26T21:46:31.174Z,76.57
2022-08-26T21:49:00.046Z,76.43
2022-08-26T21:51:30.472Z,76.47
2022-08-26T21:53:58.513Z,76.38
2022-08-26T21:56:27.353Z,76.38
2022-08-26T21:58:55.894Z,76.79
2022-08-26T22:01:25.191Z,76.75
2022-08-26T22:03:53.018Z,76.78
2022-08-26T22:06:22.274Z,76.75
2022-08-26T22:08:49.846Z,77.01
2022-08-26T22:11:17.669Z,76.92
2022-08-26T22:13:45.554Z,76.85
2022-08-26T22:16:13.385Z,76.99
2022-08-26T22:18:43.438Z,76.96
2022-08-26T22:21:16.374Z,77.07
2022-08-26T22:23:43.695Z,77.25
2022-08-26T22:26:12.174Z,77.28
2022-08-26T22:28:39.413Z,77.69
2022-08-26T22:31:08.333Z,77.50
2022-08-26T22:33:35.161Z,77.81
2022-08-26T22:36:02.394Z,77.59
2022-08-26T22:38:29.055Z,77.48
2022-08-26T22:40:56.912Z,77.59
2022-08-26T22:43:24.874Z,77.88
2022-08-26T22:45:52.965Z,77.82
2022-08-26T22:48:23.774Z,77.66
2022-08-26T22:50:51.324Z,77.68
2022-08-26T22:53:19.194Z,77.71
2022-08-26T22:55:46.443Z,77.52
2022-08-26T22:58:16.174Z,77.59
2022-08-26T23:00:44.887Z,77.75
2022-08-26T23:03:12.536Z,77.73
2022-08-26T23:05:40.493Z,77.90
2022-08-26T23:08:08.633Z,78.09
2022-08-26T23:10:37.035Z,78.23
2022-08-26T23:13:05.226Z,78.04
2022-08-26T23:15:32.274Z,78.37
2022-08-26T23:17:59.110Z,78.25
2022-08-26T23:20:27.155Z,78.37
2022-08-26T23:22:54.653Z,78.66
2022-08-26T23:25:22.313Z,78.61
2022-08-26T23:27:51.998Z,78.88
2022-08-26T23:30:24.580Z,79.04
2022-08-26T23:32:51.416Z,78.89
2022-08-26T23:35:21.650Z,78.93
2022-08-26T23:37:52.921Z,78.98
2022-08-26T23:40:32.243Z,78.97
2022-08-26T23:43:02.928Z,78.91
2022-08-26T23:45:30.617Z,78.99
2022-08-26T23:47:57.254Z,79.25
2022-08-26T23:50:48.976Z,79.30
2022-08-26T23:53:20.308Z,79.21
2022-08-26T23:55:53.174Z,79.39
2022-08-26T23:58:21.373Z,79.86
